Cle Elum, WA

11:48 AM PDT on September 18, 2014 (GMT -0700)
Stampede Pass | Change Station
CLOSE
Current Station
Airport
Location: Stampede Pass,
Elevation: 3967 ft
Nearby Weather Stations

Elev 3967 ft 47.28 °N, 121.34 °W | Updated 1 hour ago

Overcast
Overcast
50 °F
Feels Like 50 °F
N
5
Wind Variable Wind from Variable

Today
High -- | Low -- °F
--% Chance of Precip.
Yesterday
High -- | Low -- °F
Precip. -- in
6:45 AM 7:09 PM
Waning Crescent, 25% visible
Pressure 29.83 in
Visibility 0.8 miles
Clouds Mostly Cloudy 200 ft
Overcast 700 ft
Dew Point 48 °F
Humidity 93%
Rainfall 0.00 in
Snow Depth 0 in , 1 in , 0 in
UV 1 out of 12
Pollen 2.50 out of 12
Air Quality Not available.
Flu Activity Not available.
METAR KSMP 181656Z AUTO VRB04KT 3/4SM BR BKN002 OVC007 10/09 A2986 RMK AO2 VIS 1/4V1 1/2 SLP101 T01000089 $

More Conditions Fewer Conditions

Pressure 29.83 in
Visibility 0.8 miles
Clouds Mostly Cloudy 200 ft
Overcast 700 ft
Dew Point 48 °F
Humidity 93%
Rainfall 0.00 in
Snow Depth 0 in , 1 in , 0 in
UV 1 out of 12
Pollen 2.50 out of 12
Air Quality Not available.
Flu Activity Not available.
METAR KSMP 181656Z AUTO VRB04KT 3/4SM BR BKN002 OVC007 10/09 A2986 RMK AO2 VIS 1/4V1 1/2 SLP101 T01000089 $

More Conditions Fewer Conditions

10-Day Weather Forecast

Almanac

Astronomy

Sep. 18, 2014 Rise Set
Actual Time 6:45 AM PDT 7:09 PM PDT
Civil Twilight 6:14 AM PDT 7:39 PM PDT
Nautical Twilight 5:38 AM PDT 8:16 PM PDT
Astronomical Twilight 5:00 AM PDT 8:53 PM PDT
Moon 1:26 AM PDT 4:17 PM PDT
Length of Visible Light 13h 25m
Length of Day
12h 23m
Tomorrow will be 3m 22s shorter.
Waning Crescent, 25% of the Moon is Illuminated
Today
Waning Crescent
Sep 24
New
Oct 1
First Quarter
Oct 8
Full
Oct 15
Last Quarter

Today's Extremes

State Highs State Lows

Community

WunderPhotos

Upload Photos

1,754,417 photos uploaded!

Nearby

Snow Depth

Station Depth Elevation
Stevens Pass 0 in 4070 ft
Alpine Meadows 0 in 3500 ft
Quartz Peak 1 in 4700 ft
Park Creek Ridge 0 in 4600 ft
Wells Creek 0 in 4200 ft

Earthquake Activity

City Distance Mag. Time & Date
Morton, Washington 90 miles 3.0 5:43 AM PDT
2014-09-16
Minimum magnitude displayed is 2.5.

Coastal Water Temperatures

Place Temperature
No Stations Reporting

Nearby Weather Stations